createdAt,value
2023-05-03T00:01:01.865Z,97653.28
2023-05-03T00:03:53.226Z,97649.94
2023-05-03T00:06:20.100Z,97663.53
2023-05-03T00:08:48.674Z,97662.59
2023-05-03T00:11:17.742Z,97649.09
2023-05-03T00:13:50.040Z,97650.53
2023-05-03T00:16:20.556Z,97649.81
2023-05-03T00:18:49.714Z,97642.16
2023-05-03T00:21:18.532Z,97654.19
2023-05-03T00:23:47.871Z,97646.34
2023-05-03T00:26:20.499Z,97643.16
2023-05-03T00:28:53.817Z,97651.34
2023-05-03T00:31:23.145Z,97645.03
2023-05-03T00:33:59.135Z,97640.88
2023-05-03T00:36:37.049Z,97642.75
2023-05-03T00:39:14.885Z,97647.78
2023-05-03T00:41:46.816Z,97640.03
2023-05-03T00:44:15.646Z,97639.41
2023-05-03T00:46:45.334Z,97632.78
2023-05-03T00:49:15.265Z,97636.16
2023-05-03T00:51:44.135Z,97629.53
2023-05-03T00:54:12.951Z,97641.31
2023-05-03T00:56:51.028Z,97632.88
2023-05-03T00:59:32.743Z,97630.31
2023-05-03T01:02:01.518Z,97611.91
2023-05-03T01:04:33.504Z,97618.25
2023-05-03T01:07:33.824Z,97618.38
2023-05-03T01:10:43.782Z,97610.63
2023-05-03T01:13:33.611Z,97601.59
2023-05-03T01:16:13.401Z,97598.06
2023-05-03T01:18:49.901Z,97605.44
2023-05-03T01:21:20.839Z,97597.34
2023-05-03T01:24:04.912Z,97603.78
2023-05-03T01:26:34.435Z,97602.56
2023-05-03T01:29:03.253Z,97601.56
2023-05-03T01:31:47.931Z,97589.78
2023-05-03T01:34:36.128Z,97591.00
2023-05-03T01:37:06.847Z,97593.72
2023-05-03T01:40:05.544Z,97600.56
2023-05-03T01:42:41.905Z,97599.25
2023-05-03T01:45:14.172Z,97593.88
2023-05-03T01:47:42.690Z,97594.03
2023-05-03T01:50:11.836Z,97592.66
2023-05-03T01:52:41.384Z,97604.03
2023-05-03T01:55:10.597Z,97606.53
2023-05-03T01:57:38.910Z,97600.59
2023-05-03T02:00:07.721Z,97604.34
2023-05-03T02:02:36.071Z,97599.06
2023-05-03T02:05:14.439Z,97598.81
2023-05-03T02:07:42.540Z,97602.56
2023-05-03T02:10:16.041Z,97589.13
2023-05-03T02:12:45.549Z,97582.16
2023-05-03T02:15:14.859Z,97572.84
2023-05-03T02:17:45.050Z,97566.63
2023-05-03T02:20:14.089Z,97557.75
2023-05-03T02:22:48.296Z,97561.06
2023-05-03T02:25:16.646Z,97550.94
2023-05-03T02:27:48.124Z,97538.19
2023-05-03T02:30:16.383Z,97546.34
2023-05-03T02:32:44.812Z,97530.53
2023-05-03T02:35:37.696Z,97537.06
2023-05-03T02:38:04.398Z,97532.50
2023-05-03T02:40:33.615Z,97544.44
2023-05-03T02:43:03.960Z,97539.16
2023-05-03T02:45:31.398Z,97540.38
2023-05-03T02:48:01.713Z,97542.06
2023-05-03T02:50:28.708Z,97543.44
2023-05-03T02:52:55.377Z,97535.25
2023-05-03T02:55:26.704Z,97537.19
2023-05-03T02:57:55.436Z,97529.16
2023-05-03T03:00:27.154Z,97535.53
2023-05-03T03:02:55.318Z,97527.63
2023-05-03T03:05:22.611Z,97524.19
2023-05-03T03:07:52.126Z,97525.00
2023-05-03T03:10:19.112Z,97520.00
2023-05-03T03:12:54.861Z,97533.16
2023-05-03T03:15:23.334Z,97524.50
2023-05-03T03:17:50.895Z,97519.09
2023-05-03T03:20:28.330Z,97513.53
2023-05-03T03:22:55.938Z,97511.56
2023-05-03T03:25:23.480Z,97503.75
2023-05-03T03:27:50.633Z,97501.25
2023-05-03T03:30:17.525Z,97493.72
2023-05-03T03:32:45.657Z,97507.97
2023-05-03T03:35:12.333Z,97510.75
2023-05-03T03:37:40.489Z,97514.50
2023-05-03T03:40:08.179Z,97514.22
2023-05-03T03:42:35.229Z,97519.47
2023-05-03T03:45:02.000Z,97525.84
2023-05-03T03:47:28.809Z,97514.75
2023-05-03T03:49:56.309Z,97523.81
2023-05-03T03:52:24.331Z,97519.66
2023-05-03T03:54:52.510Z,97528.66
2023-05-03T03:57:20.104Z,97528.66
2023-05-03T03:59:47.131Z,97528.09
2023-05-03T04:02:15.346Z,97525.81
2023-05-03T04:04:45.229Z,97537.66
2023-05-03T04:07:13.030Z,97530.03
2023-05-03T04:09:39.969Z,97537.78
2023-05-03T04:12:07.359Z,97544.59
2023-05-03T04:14:34.572Z,97547.50
2023-05-03T04:17:05.646Z,97558.03
2023-05-03T04:19:34.087Z,97569.28
2023-05-03T04:22:01.951Z,97566.88
2023-05-03T04:24:30.928Z,97555.84
2023-05-03T04:27:33.978Z,97553.94
2023-05-03T04:30:26.385Z,97563.25
2023-05-03T04:32:55.684Z,97571.72
2023-05-03T04:35:23.052Z,97577.72
2023-05-03T04:37:51.041Z,97580.75
2023-05-03T04:40:20.616Z,97570.75
2023-05-03T04:42:49.145Z,97568.41
2023-05-03T04:45:15.879Z,97578.13
2023-05-03T04:47:43.621Z,97572.44
2023-05-03T04:50:11.526Z,97578.81
2023-05-03T04:52:38.740Z,97558.78
2023-05-03T04:55:06.275Z,97578.53
2023-05-03T04:57:34.581Z,97562.03
2023-05-03T05:00:02.314Z,97567.72
2023-05-03T05:02:29.774Z,97573.44
2023-05-03T05:04:56.540Z,97575.97
2023-05-03T05:07:23.696Z,97574.91
2023-05-03T05:09:50.891Z,97583.69
2023-05-03T05:12:18.320Z,97596.00
2023-05-03T05:14:45.534Z,97619.22
2023-05-03T05:17:12.998Z,97623.63
2023-05-03T05:19:40.252Z,97614.41
2023-05-03T05:22:07.061Z,97619.41
2023-05-03T05:24:34.052Z,97620.53
2023-05-03T05:27:01.990Z,97627.84
2023-05-03T05:29:28.994Z,97632.53
2023-05-03T05:31:55.976Z,97627.09
2023-05-03T05:34:23.018Z,97625.13
2023-05-03T05:36:50.809Z,97630.50
2023-05-03T05:39:18.164Z,97635.72
2023-05-03T05:41:45.512Z,97658.78
2023-05-03T05:44:13.391Z,97655.66
2023-05-03T05:46:40.243Z,97663.25
2023-05-03T05:49:07.406Z,97666.81
2023-05-03T05:51:34.935Z,97679.09
2023-05-03T05:54:02.853Z,97679.69
2023-05-03T05:56:33.359Z,97671.72
2023-05-03T05:59:01.390Z,97657.66
2023-05-03T06:01:29.222Z,97649.50
2023-05-03T06:03:57.815Z,97646.09
2023-05-03T06:06:25.730Z,97649.03
2023-05-03T06:08:53.813Z,97655.25
2023-05-03T06:11:21.885Z,97653.47
2023-05-03T06:13:48.715Z,97645.53
2023-05-03T06:16:17.113Z,97650.66
2023-05-03T06:18:45.042Z,97656.06
2023-05-03T06:21:13.312Z,97660.97
2023-05-03T06:23:40.541Z,97670.53
2023-05-03T06:26:07.612Z,97677.09
2023-05-03T06:28:35.237Z,97678.09
2023-05-03T06:31:05.419Z,97689.22
2023-05-03T06:33:32.133Z,97703.16
2023-05-03T06:35:59.569Z,97708.75
2023-05-03T06:38:26.620Z,97717.13
2023-05-03T06:40:53.490Z,97715.44
2023-05-03T06:43:23.266Z,97721.00
2023-05-03T06:45:53.379Z,97726.16
2023-05-03T06:48:22.569Z,97734.50
2023-05-03T06:50:49.726Z,97731.91
2023-05-03T06:53:16.627Z,97731.91
2023-05-03T06:55:45.195Z,97726.63
2023-05-03T06:58:12.574Z,97730.53
2023-05-03T07:00:40.116Z,97720.13
2023-05-03T07:03:07.902Z,97719.41
2023-05-03T07:05:35.198Z,97711.66
2023-05-03T07:08:02.219Z,97702.91
2023-05-03T07:10:31.316Z,97700.81
2023-05-03T07:12:58.639Z,97696.50
2023-05-03T07:15:25.500Z,97697.47
2023-05-03T07:17:52.260Z,97692.59
2023-05-03T07:20:19.431Z,97695.69
2023-05-03T07:22:46.683Z,97695.25
2023-05-03T07:25:15.116Z,97667.84
2023-05-03T07:27:44.971Z,97658.81
2023-05-03T07:30:12.305Z,97669.94
2023-05-03T07:32:39.560Z,97660.19
2023-05-03T07:35:08.180Z,97666.41
2023-05-03T07:37:35.156Z,97669.59
2023-05-03T07:40:02.233Z,97666.78
2023-05-03T07:42:29.900Z,97665.34
2023-05-03T07:44:56.806Z,97660.88
2023-05-03T07:47:23.915Z,97651.38
2023-05-03T07:49:51.200Z,97652.16
2023-05-03T07:52:18.281Z,97663.69
2023-05-03T07:54:46.044Z,97679.72
2023-05-03T07:57:19.140Z,97675.66
2023-05-03T07:59:45.873Z,97687.75
2023-05-03T08:02:13.839Z,97689.59
2023-05-03T08:04:42.131Z,97689.00
2023-05-03T08:07:11.274Z,97690.66
2023-05-03T08:09:42.723Z,97686.59
2023-05-03T08:12:09.592Z,97694.38
2023-05-03T08:14:37.338Z,97690.94
2023-05-03T08:17:06.884Z,97681.69
2023-05-03T08:19:33.546Z,97689.34
2023-05-03T08:22:00.411Z,97701.38
2023-05-03T08:24:27.205Z,97687.78
2023-05-03T08:26:53.988Z,97691.78
2023-05-03T08:29:21.169Z,97674.53
2023-05-03T08:31:48.069Z,97668.50
2023-05-03T08:34:14.842Z,97656.81
2023-05-03T08:36:41.672Z,97657.00
2023-05-03T08:39:10.642Z,97644.97
2023-05-03T08:41:39.662Z,97638.91
2023-05-03T08:44:08.682Z,97638.00
2023-05-03T08:46:39.342Z,97621.72
2023-05-03T08:49:07.720Z,97620.88
2023-05-03T08:51:35.645Z,97634.09
2023-05-03T08:54:02.464Z,97624.91
2023-05-03T08:56:33.572Z,97617.91
2023-05-03T08:59:05.239Z,97624.56
2023-05-03T09:01:32.221Z,97619.88
2023-05-03T09:03:59.468Z,97615.84
2023-05-03T09:06:26.598Z,97615.66
2023-05-03T09:08:54.882Z,97612.72
2023-05-03T09:11:28.721Z,97610.78
2023-05-03T09:14:08.786Z,97596.91
2023-05-03T09:16:36.144Z,97606.97
2023-05-03T09:19:06.896Z,97596.97
2023-05-03T09:21:34.323Z,97592.66
2023-05-03T09:24:04.080Z,97604.44
2023-05-03T09:26:34.066Z,97588.78
2023-05-03T09:29:03.904Z,97595.72
2023-05-03T09:31:32.931Z,97587.31
2023-05-03T09:34:01.228Z,97588.09
2023-05-03T09:36:28.371Z,97585.34
2023-05-03T09:38:56.360Z,97590.94
2023-05-03T09:41:30.993Z,97588.38
2023-05-03T09:44:02.990Z,97585.72
2023-05-03T09:46:33.596Z,97587.22
2023-05-03T09:49:01.352Z,97592.56
2023-05-03T09:51:32.098Z,97585.56
2023-05-03T09:53:59.695Z,97588.25
2023-05-03T09:56:26.906Z,97590.94
2023-05-03T09:58:54.565Z,97596.28
2023-05-03T10:01:25.175Z,97588.31
2023-05-03T10:03:54.504Z,97586.91
2023-05-03T10:06:24.411Z,97578.41
2023-05-03T10:09:02.891Z,97582.25
2023-05-03T10:11:30.356Z,97581.50
2023-05-03T10:13:59.134Z,97575.13
2023-05-03T10:16:38.120Z,97576.78
2023-05-03T10:19:14.004Z,97567.97
2023-05-03T10:22:14.458Z,97571.47
2023-05-03T10:25:03.941Z,97575.38
2023-05-03T10:27:50.376Z,97570.84
2023-05-03T10:30:35.467Z,97564.00
2023-05-03T10:33:25.289Z,97564.59
2023-05-03T10:35:55.007Z,97553.88
2023-05-03T10:38:30.747Z,97550.81
2023-05-03T10:41:04.451Z,97565.84
2023-05-03T10:43:31.459Z,97555.88
2023-05-03T10:46:00.965Z,97544.31
2023-05-03T10:48:30.070Z,97554.13
2023-05-03T10:50:59.738Z,97547.41
2023-05-03T10:53:38.359Z,97541.50
2023-05-03T10:56:14.310Z,97544.44
2023-05-03T10:58:48.493Z,97548.16
2023-05-03T11:01:17.583Z,97543.59
2023-05-03T11:03:51.840Z,97563.00
2023-05-03T11:06:37.400Z,97566.66
2023-05-03T11:09:07.019Z,97574.66
2023-05-03T11:11:37.756Z,97573.97
2023-05-03T11:14:05.934Z,97567.53
2023-05-03T11:16:32.846Z,97576.59
2023-05-03T11:19:00.562Z,97573.75
2023-05-03T11:21:27.725Z,97566.75
2023-05-03T11:23:54.645Z,97579.31
2023-05-03T11:26:28.357Z,97578.66
2023-05-03T11:28:55.121Z,97572.31
2023-05-03T11:31:22.922Z,97575.88
2023-05-03T11:33:51.328Z,97574.00
2023-05-03T11:36:18.482Z,97563.03
2023-05-03T11:38:45.941Z,97554.63
2023-05-03T11:41:17.154Z,97559.03
2023-05-03T11:43:55.058Z,97564.50
2023-05-03T11:46:32.009Z,97554.69
2023-05-03T11:48:59.681Z,97547.88
2023-05-03T11:51:28.503Z,97551.22
2023-05-03T11:54:01.367Z,97545.06
2023-05-03T11:56:35.662Z,97541.78
2023-05-03T11:59:02.395Z,97540.59
2023-05-03T12:01:30.258Z,97534.94
2023-05-03T12:04:02.784Z,97529.13
2023-05-03T12:06:34.010Z,97524.28
2023-05-03T12:09:05.022Z,97547.25
2023-05-03T12:11:43.455Z,97538.34
2023-05-03T12:14:13.424Z,97531.53
2023-05-03T12:16:52.356Z,97535.13
2023-05-03T12:22:32.228Z,97535.38
2023-05-03T12:24:59.247Z,97534.13
2023-05-03T12:27:28.134Z,97521.34
2023-05-03T12:29:57.183Z,97524.41
2023-05-03T12:32:25.507Z,97529.09
2023-05-03T12:34:57.845Z,97527.41
2023-05-03T12:37:27.595Z,97523.41
2023-05-03T12:40:11.756Z,97512.38
2023-05-03T12:42:43.470Z,97517.72
2023-05-03T12:45:15.245Z,97511.41
2023-05-03T12:47:44.644Z,97500.75
2023-05-03T12:50:18.534Z,97503.56
2023-05-03T12:52:46.273Z,97498.75
2023-05-03T12:55:18.207Z,97499.75
2023-05-03T12:57:56.444Z,97492.66
2023-05-03T13:00:48.627Z,97497.19
2023-05-03T13:03:32.478Z,97477.44
2023-05-03T13:06:04.533Z,97481.09
2023-05-03T13:11:06.460Z,97478.41
2023-05-03T13:13:34.880Z,97479.38
2023-05-03T13:16:03.742Z,97479.75
2023-05-03T13:18:30.899Z,97472.63
2023-05-03T13:20:57.837Z,97473.03
2023-05-03T13:23:25.129Z,97457.09
2023-05-03T13:25:54.317Z,97457.47
2023-05-03T13:28:24.585Z,97458.13
2023-05-03T13:30:51.582Z,97457.84
2023-05-03T13:33:18.650Z,97460.13
2023-05-03T13:35:47.058Z,97457.38
2023-05-03T13:38:15.137Z,97441.88
2023-05-03T13:40:42.315Z,97439.47
2023-05-03T13:43:09.141Z,97437.63
2023-05-03T13:45:36.059Z,97441.13
2023-05-03T13:48:18.774Z,97448.59
2023-05-03T13:50:47.478Z,97456.16
2023-05-03T13:53:14.730Z,97459.84
2023-05-03T13:55:41.729Z,97471.41
2023-05-03T13:58:09.148Z,97471.44
2023-05-03T14:00:36.320Z,97459.22
2023-05-03T14:03:03.204Z,97455.50
2023-05-03T14:05:30.645Z,97464.59
2023-05-03T14:07:57.729Z,97467.56
2023-05-03T14:10:25.315Z,97468.75
2023-05-03T14:12:53.205Z,97467.19
2023-05-03T14:15:20.345Z,97459.72
2023-05-03T14:17:48.126Z,97460.94
2023-05-03T14:20:17.656Z,97450.97
2023-05-03T14:22:45.901Z,97445.78
2023-05-03T14:25:13.026Z,97446.66
2023-05-03T14:27:40.692Z,97437.09
2023-05-03T14:30:07.929Z,97451.22
2023-05-03T14:32:34.766Z,97445.94
2023-05-03T14:35:02.241Z,97436.69
2023-05-03T14:37:29.269Z,97438.22
2023-05-03T14:39:56.046Z,97436.66
2023-05-03T14:42:22.806Z,97433.63
2023-05-03T14:44:49.993Z,97447.22
2023-05-03T14:47:17.204Z,97433.22
2023-05-03T14:49:43.938Z,97434.22
2023-05-03T14:52:14.933Z,97434.59
2023-05-03T14:54:41.884Z,97438.41
2023-05-03T14:57:13.100Z,97436.22
2023-05-03T14:59:40.042Z,97434.22
2023-05-03T15:02:08.192Z,97433.63
2023-05-03T15:04:38.019Z,97427.06
2023-05-03T15:07:09.406Z,97426.53
2023-05-03T15:09:38.279Z,97428.53
2023-05-03T15:12:15.533Z,97427.72
2023-05-03T15:14:42.715Z,97428.13
2023-05-03T15:17:09.749Z,97429.25
2023-05-03T15:19:39.862Z,97441.28
2023-05-03T15:22:07.252Z,97425.84
2023-05-03T15:24:39.498Z,97432.09
2023-05-03T15:27:06.669Z,97422.03
2023-05-03T15:29:35.513Z,97424.56
2023-05-03T15:32:02.984Z,97410.50
2023-05-03T15:34:29.952Z,97402.19
2023-05-03T15:36:56.856Z,97395.22
2023-05-03T15:39:23.840Z,97391.75
2023-05-03T15:41:50.832Z,97393.59
2023-05-03T15:44:17.734Z,97397.22
2023-05-03T15:46:47.796Z,97401.53
2023-05-03T15:49:15.904Z,97408.34
2023-05-03T15:51:44.786Z,97412.16
2023-05-03T15:54:39.261Z,97404.81
2023-05-03T15:57:21.594Z,97404.47
2023-05-03T15:59:50.619Z,97390.03
2023-05-03T16:02:18.034Z,97386.06
2023-05-03T16:04:46.405Z,97393.41
2023-05-03T16:07:15.702Z,97404.84
2023-05-03T16:09:43.753Z,97396.53
2023-05-03T16:12:11.386Z,97387.91
2023-05-03T16:14:38.370Z,97400.53
2023-05-03T16:17:06.140Z,97397.44
2023-05-03T16:19:32.960Z,97409.91
2023-05-03T16:22:00.192Z,97409.78
2023-05-03T16:24:28.925Z,97418.72
2023-05-03T16:26:59.461Z,97418.56
2023-05-03T16:29:26.627Z,97428.34
2023-05-03T16:31:54.739Z,97423.53
2023-05-03T16:34:26.503Z,97425.88
2023-05-03T16:37:00.506Z,97429.69
2023-05-03T16:39:28.276Z,97431.19
2023-05-03T16:41:58.397Z,97433.53
2023-05-03T16:44:26.866Z,97442.50
2023-05-03T16:46:55.006Z,97437.63
2023-05-03T16:49:26.506Z,97441.78
2023-05-03T16:51:57.844Z,97451.72
2023-05-03T16:54:25.102Z,97453.22
2023-05-03T16:56:52.626Z,97469.31
2023-05-03T16:59:20.140Z,97473.59
2023-05-03T17:01:47.915Z,97478.56
2023-05-03T17:04:15.062Z,97482.56
2023-05-03T17:06:42.380Z,97461.16
2023-05-03T17:09:10.854Z,97458.69
2023-05-03T17:11:37.957Z,97452.88
2023-05-03T17:14:05.424Z,97477.06
2023-05-03T17:16:32.928Z,97475.91
2023-05-03T17:19:00.554Z,97483.00
2023-05-03T17:21:27.614Z,97496.44
2023-05-03T17:23:54.625Z,97502.19
2023-05-03T17:26:22.665Z,97509.78
2023-05-03T17:28:50.085Z,97503.66
2023-05-03T17:31:18.546Z,97501.66
2023-05-03T17:33:46.557Z,97501.00
2023-05-03T17:36:13.588Z,97509.91
2023-05-03T17:38:43.127Z,97509.56
2023-05-03T17:41:11.814Z,97492.97
2023-05-03T17:43:39.993Z,97511.00
2023-05-03T17:46:12.911Z,97512.47
2023-05-03T17:48:47.497Z,97518.22
2023-05-03T17:51:16.063Z,97516.28
2023-05-03T17:53:46.342Z,97513.94
2023-05-03T17:56:25.703Z,97499.97
2023-05-03T17:58:54.268Z,97525.31
2023-05-03T18:01:32.372Z,97533.34
2023-05-03T18:04:03.436Z,97549.72
2023-05-03T18:06:31.305Z,97569.84
2023-05-03T18:08:59.513Z,97562.28
2023-05-03T18:11:50.948Z,97570.66
2023-05-03T18:14:31.763Z,97567.34
2023-05-03T18:16:59.802Z,97592.78
2023-05-03T18:20:14.363Z,97591.31
2023-05-03T18:22:55.270Z,97599.72
2023-05-03T18:25:58.235Z,97582.19
2023-05-03T18:28:25.436Z,97585.72
2023-05-03T18:30:58.632Z,97606.25
2023-05-03T18:33:29.646Z,97620.13
2023-05-03T18:35:58.275Z,97642.88
2023-05-03T18:38:25.896Z,97615.75
2023-05-03T18:41:00.992Z,97588.25
2023-05-03T18:43:28.701Z,97583.84
2023-05-03T18:46:12.905Z,97589.13
2023-05-03T18:48:59.334Z,97599.31
2023-05-03T18:51:27.078Z,97602.78
2023-05-03T18:53:55.332Z,97608.47
2023-05-03T18:56:30.265Z,97613.84
2023-05-03T18:58:57.152Z,97600.91
2023-05-03T19:02:00.357Z,97604.00
2023-05-03T19:04:56.344Z,97606.66
2023-05-03T19:07:45.008Z,97582.09
2023-05-03T19:10:16.509Z,97588.38
2023-05-03T19:12:44.640Z,97597.91
2023-05-03T19:15:26.669Z,97607.41
2023-05-03T19:18:02.322Z,97611.69
2023-05-03T19:20:48.922Z,97600.91
2023-05-03T19:23:25.097Z,97598.88
2023-05-03T19:25:53.798Z,97598.81
2023-05-03T19:28:22.693Z,97596.25
2023-05-03T19:30:54.269Z,97598.75
2023-05-03T19:33:22.872Z,97596.94
2023-05-03T19:35:50.804Z,97592.69
2023-05-03T19:38:26.992Z,97594.91
2023-05-03T19:40:59.454Z,97597.72
2023-05-03T19:43:28.461Z,97591.78
2023-05-03T19:46:10.269Z,97596.50
2023-05-03T19:48:45.520Z,97606.84
2023-05-03T19:51:21.543Z,97617.56
2023-05-03T19:53:53.169Z,97619.91
2023-05-03T19:56:36.763Z,97610.63
2023-05-03T19:59:35.569Z,97612.72
2023-05-03T20:01:54.922Z,97614.38
2023-05-03T20:04:25.984Z,97606.72
2023-05-03T20:06:57.849Z,97602.16
2023-05-03T20:09:26.454Z,97602.16
2023-05-03T20:12:19.697Z,97608.53
2023-05-03T20:14:56.538Z,97604.97
2023-05-03T20:17:32.877Z,97600.94
2023-05-03T20:25:59.361Z,97612.91
2023-05-03T20:28:32.471Z,97598.03
2023-05-03T20:30:59.800Z,97600.81
2023-05-03T20:33:28.316Z,97590.41
2023-05-03T20:35:56.905Z,97588.03
2023-05-03T20:38:25.683Z,97590.28
2023-05-03T20:40:52.673Z,97583.44
2023-05-03T20:43:24.405Z,97589.72
2023-05-03T20:45:51.562Z,97597.19
2023-05-03T20:48:18.896Z,97588.31
2023-05-03T20:50:50.391Z,97588.31
2023-05-03T20:53:19.112Z,97594.84
2023-05-03T20:55:56.543Z,97583.59
2023-05-03T20:58:23.460Z,97590.53
2023-05-03T21:00:58.486Z,97592.16
2023-05-03T21:03:27.692Z,97579.41
2023-05-03T21:05:57.898Z,97581.03
2023-05-03T21:08:28.957Z,97593.38
2023-05-03T21:10:56.323Z,97588.69
2023-05-03T21:13:25.040Z,97586.16
2023-05-03T21:15:56.579Z,97571.88
2023-05-03T21:18:25.050Z,97576.88
2023-05-03T21:20:55.349Z,97583.13
2023-05-03T21:23:25.004Z,97577.41
2023-05-03T21:25:55.186Z,97571.28
2023-05-03T21:28:33.816Z,97572.00
2023-05-03T21:31:01.085Z,97571.84
2023-05-03T21:33:28.356Z,97588.66
2023-05-03T21:35:56.294Z,97583.50
2023-05-03T21:38:24.407Z,97580.97
2023-05-03T21:40:51.515Z,97585.88
2023-05-03T21:43:19.606Z,97594.28
2023-05-03T21:45:48.529Z,97592.94
2023-05-03T21:48:15.943Z,97587.41
2023-05-03T21:50:51.469Z,97577.56
2023-05-03T21:53:26.230Z,97568.69
2023-05-03T21:56:13.783Z,97556.63
2023-05-03T21:58:41.564Z,97553.56
2023-05-03T22:01:08.705Z,97547.16
2023-05-03T22:03:37.127Z,97550.78
2023-05-03T22:06:04.086Z,97549.13
2023-05-03T22:08:32.392Z,97553.13
2023-05-03T22:11:01.078Z,97554.81
2023-05-03T22:13:28.575Z,97542.59
2023-05-03T22:15:55.415Z,97536.63
2023-05-03T22:18:22.745Z,97539.53
2023-05-03T22:20:49.394Z,97544.94
2023-05-03T22:23:16.145Z,97541.44
2023-05-03T22:25:43.617Z,97523.16
2023-05-03T22:28:11.200Z,97540.88
2023-05-03T22:30:38.383Z,97537.31
2023-05-03T22:33:05.187Z,97534.09
2023-05-03T22:35:32.065Z,97525.09
2023-05-03T22:37:59.010Z,97515.09
2023-05-03T22:40:25.868Z,97526.63
2023-05-03T22:42:52.886Z,97530.78
2023-05-03T22:45:20.162Z,97524.13
2023-05-03T22:47:50.278Z,97521.06
2023-05-03T22:50:17.098Z,97516.03
2023-05-03T22:52:45.147Z,97510.78
2023-05-03T22:55:11.951Z,97509.13
2023-05-03T22:57:39.581Z,97509.81
2023-05-03T23:00:11.442Z,97507.31
2023-05-03T23:02:38.724Z,97506.06
2023-05-03T23:05:10.870Z,97491.09
2023-05-03T23:07:44.653Z,97488.88
2023-05-03T23:10:23.143Z,97489.44
2023-05-03T23:12:50.590Z,97482.91
2023-05-03T23:15:20.480Z,97477.78
2023-05-03T23:17:54.147Z,97480.00
2023-05-03T23:20:40.308Z,97469.31
2023-05-03T23:23:09.276Z,97466.56
2023-05-03T23:25:36.882Z,97465.59
2023-05-03T23:28:04.297Z,97470.56
2023-05-03T23:30:32.884Z,97473.59
2023-05-03T23:33:10.201Z,97468.59
2023-05-03T23:35:42.542Z,97474.44
2023-05-03T23:38:10.053Z,97453.50
2023-05-03T23:40:37.794Z,97457.53
2023-05-03T23:43:04.967Z,97449.63
2023-05-03T23:45:38.893Z,97451.03
2023-05-03T23:48:09.817Z,97439.53
2023-05-03T23:50:38.943Z,97437.84
2023-05-03T23:53:10.733Z,97418.47
2023-05-03T23:55:38.915Z,97412.06
2023-05-03T23:58:09.164Z,97397.78
